createdAt,value
2023-04-17T00:01:20.147Z,94153.00
2023-04-17T00:03:49.445Z,94153.22
2023-04-17T00:06:19.269Z,94148.75
2023-04-17T00:08:48.369Z,94156.13
2023-04-17T00:11:19.106Z,94155.34
2023-04-17T00:13:48.603Z,94148.22
2023-04-17T00:16:18.120Z,94147.13
2023-04-17T00:18:47.337Z,94154.03
2023-04-17T00:21:16.462Z,94150.03
2023-04-17T00:23:46.119Z,94155.59
2023-04-17T00:26:15.606Z,94150.06
2023-04-17T00:28:49.140Z,94154.78
2023-04-17T00:31:18.554Z,94162.50
2023-04-17T00:33:47.980Z,94162.53
2023-04-17T00:36:17.139Z,94154.06
2023-04-17T00:38:46.704Z,94155.09
2023-04-17T00:41:16.343Z,94147.94
2023-04-17T00:43:49.770Z,94146.59
2023-04-17T00:46:19.040Z,94144.72
2023-04-17T00:48:48.996Z,94158.00
2023-04-17T00:51:18.450Z,94141.53
2023-04-17T00:53:47.957Z,94145.28
2023-04-17T00:56:17.505Z,94142.09
2023-04-17T00:58:46.659Z,94145.56
2023-04-17T01:01:18.207Z,94142.63
2023-04-17T01:03:47.542Z,94148.19
2023-04-17T01:06:17.101Z,94140.19
2023-04-17T01:08:46.885Z,94133.84
2023-04-17T01:11:16.192Z,94142.88
2023-04-17T01:13:47.437Z,94137.53
2023-04-17T01:16:18.333Z,94132.53
2023-04-17T01:18:48.684Z,94132.78
2023-04-17T01:21:18.323Z,94127.47
2023-04-17T01:23:52.333Z,94134.06
2023-04-17T01:26:25.999Z,94132.16
2023-04-17T01:28:57.757Z,94126.84
2023-04-17T01:31:29.107Z,94128.97
2023-04-17T01:33:58.378Z,94122.31
2023-04-17T01:36:29.676Z,94124.16
2023-04-17T01:38:59.065Z,94133.88
2023-04-17T01:41:29.844Z,94133.13
2023-04-17T01:43:59.013Z,94138.16
2023-04-17T01:46:28.552Z,94127.88
2023-04-17T01:48:58.300Z,94138.97
2023-04-17T01:51:28.215Z,94127.88
2023-04-17T01:53:57.371Z,94122.06
2023-04-17T01:56:27.365Z,94125.22
2023-04-17T01:58:57.882Z,94124.16
2023-04-17T02:01:27.305Z,94130.75
2023-04-17T02:03:56.561Z,94136.56
2023-04-17T02:06:27.592Z,94117.78
2023-04-17T02:08:56.772Z,94118.81
2023-04-17T02:11:25.887Z,94121.75
2023-04-17T02:13:55.244Z,94123.91
2023-04-17T02:16:26.611Z,94111.97
2023-04-17T02:18:56.089Z,94111.94
2023-04-17T02:21:25.242Z,94113.03
2023-04-17T02:23:54.969Z,94116.72
2023-04-17T02:26:24.134Z,94111.16
2023-04-17T02:28:53.269Z,94112.78
2023-04-17T02:31:22.553Z,94118.31
2023-04-17T02:33:53.058Z,94112.75
2023-04-17T02:36:22.541Z,94127.81
2023-04-17T02:38:51.604Z,94116.69
2023-04-17T02:41:20.750Z,94117.97
2023-04-17T02:43:50.952Z,94119.03
2023-04-17T02:46:20.810Z,94114.56
2023-04-17T02:48:51.524Z,94121.97
2023-04-17T02:51:24.731Z,94114.56
2023-04-17T02:53:54.466Z,94124.88
2023-04-17T02:56:23.703Z,94127.03
2023-04-17T02:58:52.939Z,94129.66
2023-04-17T03:01:23.866Z,94128.03
2023-04-17T03:03:53.877Z,94121.47
2023-04-17T03:06:25.132Z,94126.72
2023-04-17T03:08:54.432Z,94122.47
2023-04-17T03:11:23.852Z,94124.34
2023-04-17T03:13:53.171Z,94128.31
2023-04-17T03:16:24.261Z,94129.16
2023-04-17T03:18:54.616Z,94136.56
2023-04-17T03:21:25.153Z,94133.13
2023-04-17T03:23:55.111Z,94136.56
2023-04-17T03:26:25.045Z,94127.31
2023-04-17T03:28:54.320Z,94136.03
2023-04-17T03:31:24.466Z,94141.81
2023-04-17T03:33:54.854Z,94136.22
2023-04-17T03:36:27.423Z,94137.03
2023-04-17T03:38:59.684Z,94140.47
2023-04-17T03:41:29.522Z,94143.13
2023-04-17T03:43:58.730Z,94140.22
2023-04-17T03:46:28.058Z,94140.44
2023-04-17T03:48:57.280Z,94143.91
2023-04-17T03:51:28.870Z,94141.22
2023-04-17T03:54:03.754Z,94132.53
2023-04-17T03:56:33.688Z,94142.31
2023-04-17T03:59:04.434Z,94136.34
2023-04-17T04:01:39.367Z,94135.94
2023-04-17T04:04:29.084Z,94146.81
2023-04-17T04:07:09.306Z,94143.19
2023-04-17T04:09:38.982Z,94139.50
2023-04-17T04:12:10.332Z,94144.56
2023-04-17T04:14:45.728Z,94131.84
2023-04-17T04:17:17.196Z,94129.72
2023-04-17T04:19:46.717Z,94131.84
2023-04-17T04:22:19.089Z,94131.84
2023-04-17T04:24:53.951Z,94138.16
2023-04-17T04:27:33.149Z,94138.72
2023-04-17T04:30:04.996Z,94132.13
2023-04-17T04:32:38.919Z,94143.25
2023-04-17T04:35:10.179Z,94141.66
2023-04-17T04:37:43.225Z,94148.06
2023-04-17T04:40:13.961Z,94146.50
2023-04-17T04:42:49.784Z,94144.09
2023-04-17T04:45:25.858Z,94147.03
2023-04-17T04:47:56.198Z,94139.88
2023-04-17T04:50:26.066Z,94155.56
2023-04-17T04:52:56.641Z,94146.31
2023-04-17T04:55:46.065Z,94143.94
2023-04-17T04:58:16.474Z,94149.78
2023-04-17T05:00:47.606Z,94146.59
2023-04-17T05:03:24.379Z,94149.25
2023-04-17T05:05:55.511Z,94142.69
2023-04-17T05:08:29.665Z,94146.16
2023-04-17T05:11:07.754Z,94140.56
2023-04-17T05:13:37.502Z,94145.34
2023-04-17T05:16:08.410Z,94141.94
2023-04-17T05:18:37.696Z,94147.50
2023-04-17T05:21:08.084Z,94153.06
2023-04-17T05:23:40.782Z,94154.66
2023-04-17T05:26:09.926Z,94147.22
2023-04-17T05:28:39.684Z,94147.75
2023-04-17T05:31:09.245Z,94143.00
2023-04-17T05:33:43.307Z,94143.53
2023-04-17T05:36:12.586Z,94149.91
2023-04-17T05:38:46.152Z,94154.16
2023-04-17T05:41:15.616Z,94158.94
2023-04-17T05:43:46.405Z,94164.25
2023-04-17T05:46:15.669Z,94160.53
2023-04-17T05:48:45.767Z,94162.38
2023-04-17T05:51:15.167Z,94162.13
2023-04-17T05:53:49.124Z,94165.84
2023-04-17T05:56:18.347Z,94169.56
2023-04-17T05:58:47.513Z,94174.09
2023-04-17T06:01:17.938Z,94180.44
2023-04-17T06:03:47.517Z,94177.81
2023-04-17T06:06:23.373Z,94184.44
2023-04-17T06:08:56.114Z,94188.13
2023-04-17T06:11:25.817Z,94180.16
2023-04-17T06:13:56.119Z,94191.31
2023-04-17T06:16:25.895Z,94190.53
2023-04-17T06:18:55.063Z,94194.50
2023-04-17T06:21:24.390Z,94191.34
2023-04-17T06:23:53.871Z,94203.56
2023-04-17T06:26:24.686Z,94200.38
2023-04-17T06:28:55.001Z,94198.78
2023-04-17T06:31:26.007Z,94202.22
2023-04-17T06:33:55.459Z,94205.69
2023-04-17T06:36:29.885Z,94199.28
2023-04-17T06:39:00.885Z,94209.38
2023-04-17T06:41:33.441Z,94198.78
2023-04-17T06:44:03.667Z,94202.22
2023-04-17T06:46:47.268Z,94206.75
2023-04-17T06:49:16.651Z,94220.81
2023-04-17T06:51:47.693Z,94217.09
2023-04-17T06:54:16.777Z,94222.41
2023-04-17T06:56:47.380Z,94212.56
2023-04-17T06:59:16.407Z,94220.81
2023-04-17T07:01:46.372Z,94220.56
2023-04-17T07:04:15.657Z,94222.91
2023-04-17T07:06:44.818Z,94226.63
2023-04-17T07:09:14.059Z,94220.00
2023-04-17T07:11:43.372Z,94222.41
2023-04-17T07:14:14.166Z,94227.97
2023-04-17T07:16:43.371Z,94224.00
2023-04-17T07:19:12.815Z,94228.53
2023-04-17T07:21:42.576Z,94229.31
2023-04-17T07:24:11.792Z,94228.75
2023-04-17T07:26:43.559Z,94242.03
2023-04-17T07:29:14.417Z,94239.09
2023-04-17T07:31:43.788Z,94246.53
2023-04-17T07:34:12.998Z,94232.91
2023-04-17T07:36:42.135Z,94238.75
2023-04-17T07:39:11.727Z,94245.94
2023-04-17T07:41:41.041Z,94238.78
2023-04-17T07:44:10.194Z,94242.16
2023-04-17T07:46:41.680Z,94235.03
2023-04-17T07:49:12.170Z,94242.69
2023-04-17T07:51:42.945Z,94241.84
2023-04-17T07:54:12.114Z,94243.66
2023-04-17T07:56:42.201Z,94241.00
2023-04-17T07:59:12.239Z,94235.50
2023-04-17T08:01:43.097Z,94246.63
2023-04-17T08:04:12.563Z,94236.88
2023-04-17T08:06:41.993Z,94235.00
2023-04-17T08:09:11.454Z,94231.19
2023-04-17T08:11:55.701Z,94234.38
2023-04-17T08:14:26.942Z,94239.38
2023-04-17T08:16:57.739Z,94236.34
2023-04-17T08:19:26.950Z,94231.84
2023-04-17T08:22:04.018Z,94233.94
2023-04-17T08:24:33.625Z,94229.47
2023-04-17T08:27:02.736Z,94226.91
2023-04-17T08:29:31.942Z,94229.97
2023-04-17T08:32:14.082Z,94229.06
2023-04-17T08:34:46.241Z,94225.03
2023-04-17T08:37:15.418Z,94231.34
2023-04-17T08:39:45.258Z,94233.13
2023-04-17T08:42:18.621Z,94231.63
2023-04-17T08:44:48.167Z,94234.84
2023-04-17T08:47:20.636Z,94236.63
2023-04-17T08:49:50.710Z,94228.66
2023-04-17T08:52:20.467Z,94235.94
2023-04-17T08:54:51.360Z,94234.84
2023-04-17T08:57:20.733Z,94233.22
2023-04-17T08:59:49.808Z,94231.50
2023-04-17T09:02:20.503Z,94244.16
2023-04-17T09:04:49.939Z,94236.28
2023-04-17T09:07:31.133Z,94237.47
2023-04-17T09:10:00.259Z,94238.78
2023-04-17T09:12:29.426Z,94236.44
2023-04-17T09:14:58.693Z,94241.44
2023-04-17T09:17:38.114Z,94242.97
2023-04-17T09:20:09.418Z,94233.84
2023-04-17T09:22:40.458Z,94231.97
2023-04-17T09:25:18.446Z,94232.44
2023-04-17T09:27:50.121Z,94239.78
2023-04-17T09:30:19.344Z,94236.78
2023-04-17T09:32:50.128Z,94227.25
2023-04-17T09:35:27.064Z,94226.56
2023-04-17T09:37:59.475Z,94228.91
2023-04-17T09:40:38.769Z,94234.03
2023-04-17T09:43:10.836Z,94229.00
2023-04-17T09:45:44.630Z,94222.88
2023-04-17T09:48:15.499Z,94225.75
2023-04-17T09:50:45.749Z,94217.47
2023-04-17T09:53:17.267Z,94223.09
2023-04-17T09:55:46.680Z,94212.69
2023-04-17T09:58:16.736Z,94221.94
2023-04-17T10:00:46.209Z,94215.19
2023-04-17T10:03:18.274Z,94218.56
2023-04-17T10:05:47.896Z,94215.72
2023-04-17T10:08:17.132Z,94225.91
2023-04-17T10:10:47.063Z,94223.84
2023-04-17T10:13:18.633Z,94222.56
2023-04-17T10:15:49.578Z,94206.63
2023-04-17T10:18:24.837Z,94215.97
2023-04-17T10:20:55.716Z,94222.22
2023-04-17T10:23:31.654Z,94215.28
2023-04-17T10:26:36.899Z,94211.53
2023-04-17T10:29:06.097Z,94215.34
2023-04-17T10:32:29.017Z,94219.41
2023-04-17T10:35:01.195Z,94208.78
2023-04-17T10:38:05.521Z,94201.78
2023-04-17T10:40:36.184Z,94205.09
2023-04-17T10:43:07.916Z,94205.09
2023-04-17T10:45:56.785Z,94208.75
2023-04-17T10:48:31.393Z,94222.38
2023-04-17T10:51:02.568Z,94205.84
2023-04-17T10:53:46.855Z,94208.72
2023-04-17T10:56:23.274Z,94216.06
2023-04-17T10:58:59.362Z,94215.91
2023-04-17T11:01:32.430Z,94209.44
2023-04-17T11:04:02.248Z,94207.09
2023-04-17T11:06:35.499Z,94204.13
2023-04-17T11:09:06.760Z,94216.19
2023-04-17T11:11:44.000Z,94214.38
2023-04-17T11:14:15.985Z,94207.34
2023-04-17T11:16:46.667Z,94210.22
2023-04-17T11:19:23.121Z,94198.81
2023-04-17T11:21:57.488Z,94202.47
2023-04-17T11:24:27.885Z,94206.09
2023-04-17T11:26:58.571Z,94202.69
2023-04-17T11:29:28.190Z,94209.22
2023-04-17T11:31:58.948Z,94208.72
2023-04-17T11:34:28.264Z,94191.47
2023-04-17T11:37:00.636Z,94194.06
2023-04-17T11:39:33.627Z,94194.28
2023-04-17T11:42:04.049Z,94192.69
2023-04-17T11:44:33.235Z,94199.94
2023-04-17T11:47:04.240Z,94184.47
2023-04-17T11:49:34.751Z,94177.22
2023-04-17T11:52:06.734Z,94175.91
2023-04-17T11:54:38.709Z,94168.56
2023-04-17T11:57:13.251Z,94175.72
2023-04-17T11:59:45.065Z,94169.19
2023-04-17T12:02:15.505Z,94177.91
2023-04-17T12:04:44.922Z,94177.47
2023-04-17T12:07:25.449Z,94180.41
2023-04-17T12:09:58.418Z,94181.50
2023-04-17T12:12:27.553Z,94174.00
2023-04-17T12:14:57.193Z,94170.78
2023-04-17T12:17:27.387Z,94181.00
2023-04-17T12:19:56.693Z,94167.53
2023-04-17T12:22:30.663Z,94164.66
2023-04-17T12:25:00.347Z,94160.69
2023-04-17T12:27:29.592Z,94161.25
2023-04-17T12:29:58.646Z,94159.03
2023-04-17T12:32:27.794Z,94162.28
2023-04-17T12:34:57.195Z,94172.59
2023-04-17T12:37:27.218Z,94168.88
2023-04-17T12:39:59.064Z,94170.75
2023-04-17T12:42:29.642Z,94172.09
2023-04-17T12:45:00.920Z,94163.22
2023-04-17T12:47:30.596Z,94164.19
2023-04-17T12:50:00.689Z,94159.59
2023-04-17T12:52:29.916Z,94160.16
2023-04-17T12:55:04.274Z,94159.47
2023-04-17T12:57:34.829Z,94161.00
2023-04-17T13:00:08.010Z,94158.69
2023-04-17T13:02:37.750Z,94159.13
2023-04-17T13:05:08.636Z,94157.75
2023-04-17T13:07:38.729Z,94155.41
2023-04-17T13:10:10.815Z,94166.59
2023-04-17T13:12:42.410Z,94163.38
2023-04-17T13:15:13.586Z,94161.75
2023-04-17T13:17:43.890Z,94157.78
2023-04-17T13:20:13.640Z,94149.03
2023-04-17T13:22:42.756Z,94157.75
2023-04-17T13:25:13.512Z,94158.59
2023-04-17T13:27:42.663Z,94146.75
2023-04-17T13:30:12.502Z,94146.25
2023-04-17T13:32:42.090Z,94151.91
2023-04-17T13:35:13.669Z,94143.03
2023-04-17T13:37:43.144Z,94145.06
2023-04-17T13:40:15.883Z,94144.06
2023-04-17T13:42:47.217Z,94138.16
2023-04-17T13:45:16.462Z,94137.94
2023-04-17T13:47:46.303Z,94136.72
2023-04-17T13:50:15.824Z,94137.72
2023-04-17T13:52:45.035Z,94138.31
2023-04-17T13:55:17.520Z,94135.72
2023-04-17T13:57:46.643Z,94130.09
2023-04-17T14:00:18.643Z,94132.75
2023-04-17T14:02:48.085Z,94132.09
2023-04-17T14:05:17.403Z,94135.81
2023-04-17T14:07:50.174Z,94130.81
2023-04-17T14:10:21.220Z,94133.94
2023-04-17T14:12:50.362Z,94132.03
2023-04-17T14:15:19.843Z,94135.00
2023-04-17T14:17:49.774Z,94131.84
2023-04-17T14:20:20.251Z,94128.66
2023-04-17T14:22:49.736Z,94140.31
2023-04-17T14:25:20.468Z,94132.38
2023-04-17T14:27:49.765Z,94148.19
2023-04-17T14:30:18.937Z,94145.03
2023-04-17T14:32:48.316Z,94136.63
2023-04-17T14:35:18.246Z,94148.69
2023-04-17T14:37:48.200Z,94140.94
2023-04-17T14:40:18.061Z,94141.75
2023-04-17T14:42:54.522Z,94142.78
2023-04-17T14:45:24.212Z,94141.19
2023-04-17T14:47:53.902Z,94145.22
2023-04-17T14:50:23.359Z,94141.19
2023-04-17T14:52:53.313Z,94152.38
2023-04-17T14:55:22.467Z,94144.09
2023-04-17T14:57:53.983Z,94139.97
2023-04-17T15:00:23.662Z,94141.78
2023-04-17T15:02:53.153Z,94146.66
2023-04-17T15:05:22.953Z,94146.25
2023-04-17T15:07:52.097Z,94134.69
2023-04-17T15:10:21.617Z,94140.59
2023-04-17T15:12:50.955Z,94150.78
2023-04-17T15:15:22.595Z,94135.56
2023-04-17T15:17:52.067Z,94140.81
2023-04-17T15:20:25.225Z,94134.19
2023-04-17T15:22:55.072Z,94136.84
2023-04-17T15:25:25.187Z,94136.84
2023-04-17T15:27:55.118Z,94127.56
2023-04-17T15:30:25.924Z,94139.78
2023-04-17T15:32:55.055Z,94137.00
2023-04-17T15:35:24.253Z,94131.22
2023-04-17T15:37:53.404Z,94126.78
2023-04-17T15:40:22.503Z,94133.69
2023-04-17T15:42:51.739Z,94133.69
2023-04-17T15:45:20.956Z,94129.19
2023-04-17T15:47:51.618Z,94127.25
2023-04-17T15:50:21.375Z,94130.69
2023-04-17T15:52:50.483Z,94132.00
2023-04-17T15:55:19.733Z,94127.31
2023-04-17T15:57:49.608Z,94136.03
2023-04-17T16:00:19.769Z,94135.47
2023-04-17T16:02:49.910Z,94129.22
2023-04-17T16:05:21.145Z,94125.94
2023-04-17T16:07:50.758Z,94127.13
2023-04-17T16:10:19.988Z,94129.50
2023-04-17T16:12:49.196Z,94125.56
2023-04-17T16:15:19.288Z,94136.81
2023-04-17T16:17:52.041Z,94138.72
2023-04-17T16:20:22.736Z,94148.41
2023-04-17T16:22:52.038Z,94149.03
2023-04-17T16:25:21.341Z,94148.31
2023-04-17T16:27:50.588Z,94144.28
2023-04-17T16:30:19.904Z,94148.06
2023-04-17T16:32:50.408Z,94147.53
2023-04-17T16:35:19.791Z,94151.28
2023-04-17T16:37:50.868Z,94155.53
2023-04-17T16:40:20.235Z,94151.06
2023-04-17T16:42:49.678Z,94151.88
2023-04-17T16:45:19.269Z,94153.78
2023-04-17T16:47:48.724Z,94156.47
2023-04-17T16:50:18.150Z,94154.69
2023-04-17T16:52:49.908Z,94156.88
2023-04-17T16:55:21.208Z,94152.69
2023-04-17T16:57:50.456Z,94152.47
2023-04-17T17:00:20.075Z,94154.38
2023-04-17T17:02:50.732Z,94170.31
2023-04-17T17:05:19.973Z,94165.06
2023-04-17T17:07:49.546Z,94164.25
2023-04-17T17:10:20.411Z,94160.53
2023-04-17T17:12:49.609Z,94174.72
2023-04-17T17:15:20.788Z,94177.66
2023-04-17T17:17:50.597Z,94181.09
2023-04-17T17:20:20.593Z,94176.31
2023-04-17T17:22:50.461Z,94181.91
2023-04-17T17:25:25.109Z,94181.69
2023-04-17T17:27:54.305Z,94184.91
2023-04-17T17:30:23.547Z,94185.97
2023-04-17T17:32:52.786Z,94195.28
2023-04-17T17:35:22.024Z,94197.13
2023-04-17T17:37:51.857Z,94198.69
2023-04-17T17:40:20.971Z,94196.34
2023-04-17T17:42:51.639Z,94205.88
2023-04-17T17:45:20.787Z,94205.09
2023-04-17T17:47:49.990Z,94219.47
2023-04-17T17:50:19.540Z,94219.97
2023-04-17T17:52:49.351Z,94220.50
2023-04-17T17:55:18.693Z,94227.94
2023-04-17T17:57:50.673Z,94220.50
2023-04-17T18:00:20.300Z,94234.84
2023-04-17T18:02:50.013Z,94231.69
2023-04-17T18:05:19.540Z,94237.28
2023-04-17T18:07:48.742Z,94239.94
2023-04-17T18:10:18.358Z,94246.31
2023-04-17T18:12:49.479Z,94241.81
2023-04-17T18:15:20.243Z,94244.19
2023-04-17T18:17:49.368Z,94246.84
2023-04-17T18:20:18.636Z,94257.50
2023-04-17T18:22:47.858Z,94259.06
2023-04-17T18:25:16.995Z,94248.44
2023-04-17T18:27:46.439Z,94263.06
2023-04-17T18:30:16.777Z,94268.09
2023-04-17T18:32:47.454Z,94270.75
2023-04-17T18:35:18.948Z,94272.88
2023-04-17T18:37:51.111Z,94276.63
2023-04-17T18:40:23.538Z,94283.25
2023-04-17T18:42:52.942Z,94287.22
2023-04-17T18:45:22.653Z,94283.78
2023-04-17T18:47:53.406Z,94290.16
2023-04-17T18:50:22.667Z,94290.44
2023-04-17T18:52:52.005Z,94291.22
2023-04-17T18:55:21.992Z,94291.75
2023-04-17T18:57:51.098Z,94292.25
2023-04-17T19:00:20.586Z,94303.66
2023-04-17T19:02:49.708Z,94296.22
2023-04-17T19:05:21.716Z,94294.31
2023-04-17T19:07:51.433Z,94299.63
2023-04-17T19:10:20.777Z,94300.13
2023-04-17T19:12:53.018Z,94305.72
2023-04-17T19:15:22.261Z,94306.78
2023-04-17T19:17:52.307Z,94296.47
2023-04-17T19:20:23.634Z,94299.13
2023-04-17T19:22:52.847Z,94293.84
2023-04-17T19:25:22.085Z,94302.06
2023-04-17T19:27:51.224Z,94296.47
2023-04-17T19:30:20.626Z,94298.06
2023-04-17T19:32:49.723Z,94304.72
2023-04-17T19:35:18.953Z,94307.38
2023-04-17T19:37:49.533Z,94307.38
2023-04-17T19:40:24.984Z,94310.28
2023-04-17T19:42:56.495Z,94310.56
2023-04-17T19:45:25.621Z,94318.25
2023-04-17T19:47:57.339Z,94318.53
2023-04-17T19:50:28.064Z,94318.53
2023-04-17T19:52:59.774Z,94320.34
2023-04-17T19:55:28.851Z,94311.88
2023-04-17T19:57:59.014Z,94314.81
2023-04-17T20:00:28.170Z,94311.59
2023-04-17T20:02:57.235Z,94311.09
2023-04-17T20:05:26.320Z,94307.66
2023-04-17T20:07:55.688Z,94312.16
2023-04-17T20:10:26.486Z,94310.31
2023-04-17T20:12:55.455Z,94320.66
2023-04-17T20:15:24.475Z,94318.53
2023-04-17T20:17:54.504Z,94322.00
2023-04-17T20:20:23.557Z,94317.22
2023-04-17T20:22:52.466Z,94318.00
2023-04-17T20:25:21.897Z,94317.47
2023-04-17T20:27:52.289Z,94314.84
2023-04-17T20:30:21.534Z,94314.59
2023-04-17T20:32:50.830Z,94326.78
2023-04-17T20:35:23.884Z,94320.69
2023-04-17T20:37:53.211Z,94328.16
2023-04-17T20:40:22.094Z,94323.34
2023-04-17T20:42:52.420Z,94325.22
2023-04-17T20:45:21.997Z,94320.72
2023-04-17T20:50:23.033Z,94332.13
2023-04-17T20:52:52.118Z,94323.88
2023-04-17T20:55:21.111Z,94323.63
2023-04-17T20:57:51.621Z,94320.41
2023-04-17T21:00:22.713Z,94319.34
2023-04-17T21:02:52.110Z,94319.88
2023-04-17T21:05:21.187Z,94318.78
2023-04-17T21:07:51.548Z,94324.09
2023-04-17T21:10:21.328Z,94318.53
2023-04-17T21:12:51.975Z,94320.41
2023-04-17T21:15:21.223Z,94316.69
2023-04-17T21:17:50.496Z,94310.31
2023-04-17T21:20:19.782Z,94317.22
2023-04-17T21:22:49.810Z,94315.09
2023-04-17T21:25:19.113Z,94317.22
2023-04-17T21:27:49.686Z,94313.75
2023-04-17T21:30:20.853Z,94307.41
2023-04-17T21:32:50.717Z,94309.78
2023-04-17T21:35:20.099Z,94306.31
2023-04-17T21:37:49.215Z,94309.25
2023-04-17T21:40:18.746Z,94307.13
2023-04-17T21:42:48.957Z,94312.19
2023-04-17T21:45:20.757Z,94306.59
2023-04-17T21:47:49.903Z,94315.09
2023-04-17T21:50:19.163Z,94314.59
2023-04-17T21:52:48.319Z,94315.91
2023-04-17T21:55:17.764Z,94319.88
2023-04-17T21:57:46.811Z,94316.44
2023-04-17T22:00:17.896Z,94309.53
2023-04-17T22:02:48.484Z,94318.25
2023-04-17T22:05:17.768Z,94311.88
2023-04-17T22:07:54.546Z,94309.22
2023-04-17T22:10:25.282Z,94318.78
2023-04-17T22:12:54.428Z,94321.66
2023-04-17T22:15:23.566Z,94319.81
2023-04-17T22:17:54.204Z,94327.22
2023-04-17T22:20:23.359Z,94315.53
2023-04-17T22:22:52.330Z,94325.34
2023-04-17T22:25:22.333Z,94324.53
2023-04-17T22:27:52.140Z,94319.75
2023-04-17T22:30:21.264Z,94325.03
2023-04-17T22:32:50.260Z,94316.78
2023-04-17T22:35:21.285Z,94322.38
2023-04-17T22:37:50.411Z,94312.50
2023-04-17T22:40:19.426Z,94315.97
2023-04-17T22:42:50.524Z,94310.41
2023-04-17T22:45:19.723Z,94317.31
2023-04-17T22:47:48.904Z,94309.31
2023-04-17T22:50:18.084Z,94312.47
2023-04-17T22:52:48.546Z,94311.03
2023-04-17T22:55:17.621Z,94311.31
2023-04-17T22:57:46.795Z,94312.94
2023-04-17T23:00:17.412Z,94316.09
2023-04-17T23:02:46.650Z,94308.38
2023-04-17T23:05:15.673Z,94310.53
2023-04-17T23:07:45.028Z,94304.94
2023-04-17T23:10:15.662Z,94309.72
2023-04-17T23:12:45.050Z,94314.50
2023-04-17T23:15:14.609Z,94315.03
2023-04-17T23:17:44.154Z,94303.88
2023-04-17T23:20:14.043Z,94297.22
2023-04-17T23:22:43.357Z,94300.13
2023-04-17T23:25:14.668Z,94302.25
2023-04-17T23:27:43.867Z,94298.00
2023-04-17T23:30:13.988Z,94299.59
2023-04-17T23:32:43.484Z,94304.16
2023-04-17T23:35:12.684Z,94306.53
2023-04-17T23:37:42.738Z,94299.38
2023-04-17T23:40:12.321Z,94297.78
2023-04-17T23:42:43.384Z,94300.13
2023-04-17T23:45:12.961Z,94307.84
2023-04-17T23:47:42.093Z,94296.94
2023-04-17T23:50:12.288Z,94299.88
2023-04-17T23:52:41.512Z,94302.28
2023-04-17T23:55:10.935Z,94300.16
2023-04-17T23:57:40.053Z,94299.88
